Time;durP1;ratioP1;P1;durP2;ratioP2;P2;SDS_P1;SDS_P2;PMS_P1;PMS_P2;Temp;Humidity;BMP_temperature;BMP_pressure;BME280_temperature;BME280_humidity;BME280_pressure;Samples;Min_cycle;Max_cycle;Signal;HPM_P1;HPM_P2
2023/05/03 00:00:06;;;;;;;4.43;1.77;;;5.90;80.20;;;;;;5034523;28;20099;-48
2023/05/03 00:02:37;;;;;;;4.82;1.77;;;5.80;80.80;;;;;;5034515;28;20120;-46
2023/05/03 00:05:08;;;;;;;4.03;2.20;;;5.80;80.80;;;;;;5054320;28;20094;-46
2023/05/03 00:07:35;;;;;;;5.70;1.92;;;5.90;81.00;;;;;;5047757;28;20056;-45
2023/05/03 00:10:03;;;;;;;5.70;2.05;;;5.90;80.90;;;;;;5034716;28;20150;-49
2023/05/03 00:12:30;;;;;;;4.20;1.90;;;5.90;81.10;;;;;;5034464;28;20362;-45
2023/05/03 00:14:56;;;;;;;5.50;2.20;;;5.90;80.60;;;;;;5034331;28;20025;-47
2023/05/03 00:17:23;;;;;;;7.13;2.10;;;5.90;80.50;;;;;;5034620;28;20025;-46
2023/05/03 00:19:54;;;;;;;3.03;1.67;;;5.90;80.80;;;;;;5017089;28;20064;-45
2023/05/03 00:22:21;;;;;;;4.38;2.25;;;5.90;80.70;;;;;;5034695;28;20394;-46
2023/05/03 00:24:51;;;;;;;4.78;2.38;;;5.90;81.10;;;;;;5033352;28;20336;-46
2023/05/03 00:27:18;;;;;;;6.32;2.15;;;6.00;81.60;;;;;;5034198;28;20025;-45
2023/05/03 00:29:45;;;;;;;4.45;2.33;;;5.90;81.30;;;;;;5016503;28;20041;-45
2023/05/03 00:32:12;;;;;;;8.10;2.33;;;6.00;81.30;;;;;;5016770;28;20064;-46
2023/05/03 00:34:39;;;;;;;5.93;2.28;;;6.00;81.10;;;;;;5033859;28;20021;-46
2023/05/03 00:37:08;;;;;;;7.18;2.03;;;5.90;81.10;;;;;;5034017;28;20350;-46
2023/05/03 00:39:35;;;;;;;7.03;2.20;;;5.90;81.00;;;;;;5033901;28;20132;-45
2023/05/03 00:42:03;;;;;;;4.53;1.90;;;5.90;81.10;;;;;;5033111;28;20029;-46
2023/05/03 00:44:35;;;;;;;3.10;1.70;;;5.90;81.20;;;;;;5034109;28;20462;-46
2023/05/03 00:47:03;;;;;;;4.05;2.20;;;5.90;81.40;;;;;;5034344;28;20052;-46
2023/05/03 00:49:30;;;;;;;5.25;2.72;;;5.90;81.70;;;;;;5049760;28;20147;-46
2023/05/03 00:51:58;;;;;;;7.75;3.33;;;5.90;81.70;;;;;;5036004;28;20049;-45
2023/05/03 00:54:31;;;;;;;5.68;2.55;;;5.90;81.90;;;;;;5040093;28;20098;-46
2023/05/03 00:56:58;;;;;;;7.25;3.05;;;6.00;82.00;;;;;;5033879;28;20044;-45
2023/05/03 00:59:28;;;;;;;5.65;2.45;;;6.00;81.90;;;;;;5033897;28;20025;-46
2023/05/03 01:01:55;;;;;;;4.90;2.47;;;6.10;81.90;;;;;;5033861;28;20442;-45
2023/05/03 01:04:22;;;;;;;6.88;2.83;;;6.20;81.80;;;;;;5033742;28;20701;-46
2023/05/03 01:06:56;;;;;;;9.68;3.42;;;6.20;81.30;;;;;;5033636;28;20033;-45
2023/05/03 01:10:03;;;;;;;10.13;6.40;;;6.20;81.40;;;;;;5015972;28;20022;-46
2023/05/03 01:12:50;;;;;;;28.42;14.98;;;6.30;81.20;;;;;;5033138;28;20359;-46
2023/05/03 01:15:45;;;;;;;19.58;10.75;;;6.30;80.90;;;;;;5032827;28;20049;-45
2023/05/03 01:18:27;;;;;;;16.85;8.77;;;6.40;80.80;;;;;;5033621;28;20025;-47
2023/05/03 01:20:55;;;;;;;11.00;5.63;;;6.40;81.00;;;;;;5033417;28;20025;-45
2023/05/03 01:23:40;;;;;;;8.38;3.85;;;6.40;80.90;;;;;;5032386;28;20029;-46
2023/05/03 01:26:23;;;;;;;5.90;3.08;;;6.50;81.00;;;;;;5046567;28;20063;-45
2023/05/03 01:28:51;;;;;;;6.88;3.28;;;6.50;80.70;;;;;;5053274;28;20021;-46
2023/05/03 01:31:27;;;;;;;6.72;3.35;;;6.50;80.50;;;;;;5034485;28;20021;-47
2023/05/03 01:34:17;;;;;;;7.10;3.08;;;6.60;80.50;;;;;;5033221;28;20055;-46
2023/05/03 01:36:43;;;;;;;;;;;6.60;80.70;;;;;;4972774;28;20086;-46
2023/05/03 01:39:30;;;;;;;5.90;2.20;;;6.70;80.30;;;;;;5024351;28;20265;-47
2023/05/03 01:41:58;;;;;;;4.90;2.40;;;6.70;80.10;;;;;;5053130;28;20020;-45
2023/05/03 01:44:25;;;;;;;4.55;2.28;;;6.70;80.10;;;;;;5052630;28;20036;-45
2023/05/03 01:46:52;;;;;;;4.45;2.20;;;6.70;79.90;;;;;;5040356;28;20025;-46
2023/05/03 01:49:19;;;;;;;3.10;1.80;;;6.80;80.10;;;;;;5032476;28;20041;-47
2023/05/03 01:51:46;;;;;;;4.90;1.95;;;6.80;79.90;;;;;;5033095;28;20100;-46
2023/05/03 01:54:13;;;;;;;5.43;1.60;;;6.80;79.50;;;;;;5015472;28;20033;-46
2023/05/03 01:56:40;;;;;;;3.63;1.98;;;6.80;79.30;;;;;;5015590;28;20060;-45
2023/05/03 01:59:07;;;;;;;4.25;1.83;;;6.80;78.30;;;;;;5032632;28;20021;-45
2023/05/03 02:01:34;;;;;;;5.82;1.65;;;6.80;78.30;;;;;;5032827;28;20013;-47
2023/05/03 02:04:00;;;;;;;3.10;1.70;;;6.80;78.00;;;;;;5032872;28;20032;-46
2023/05/03 02:06:27;;;;;;;9.55;2.38;;;6.90;77.90;;;;;;5035517;28;20025;-47
2023/05/03 02:08:53;;;;;;;7.82;2.60;;;6.90;77.90;;;;;;5052417;28;20566;-46
2023/05/03 02:11:20;;;;;;;3.63;1.83;;;6.90;77.60;;;;;;5052782;28;20029;-46
2023/05/03 02:13:50;;;;;;;3.88;2.10;;;6.90;77.30;;;;;;5052494;28;20036;-46
2023/05/03 02:16:17;;;;;;;8.30;2.65;;;7.00;77.70;;;;;;5041800;28;20040;-46
2023/05/03 02:18:44;;;;;;;6.13;2.47;;;7.00;77.40;;;;;;5032856;28;20030;-46
2023/05/03 02:21:12;;;;;;;4.30;2.17;;;7.00;77.40;;;;;;5032872;28;20025;-46
2023/05/03 02:23:39;;;;;;;4.90;2.15;;;7.10;77.70;;;;;;5032607;28;20025;-46
2023/05/03 02:26:06;;;;;;;3.88;2.42;;;7.10;77.60;;;;;;5015474;28;20534;-46
2023/05/03 02:28:34;;;;;;;4.70;2.25;;;7.10;78.00;;;;;;5032341;28;20029;-46
2023/05/03 02:31:01;;;;;;;6.30;2.00;;;7.20;77.90;;;;;;5031982;28;20040;-46
2023/05/03 02:33:29;;;;;;;4.68;2.08;;;7.20;77.80;;;;;;5032013;28;20513;-46
2023/05/03 02:35:56;;;;;;;4.32;2.13;;;7.20;77.70;;;;;;5032093;28;20022;-46
2023/05/03 02:38:23;;;;;;;3.50;2.00;;;7.20;78.10;;;;;;5032111;28;20029;-46
2023/05/03 02:40:50;;;;;;;3.65;2.15;;;7.20;78.30;;;;;;5032558;28;20041;-44
2023/05/03 02:43:19;;;;;;;6.65;2.60;;;7.20;78.30;;;;;;5032298;28;20064;-45
2023/05/03 02:45:46;;;;;;;6.88;2.97;;;7.20;78.50;;;;;;5032514;28;20029;-47
2023/05/03 02:48:12;;;;;;;4.38;2.05;;;7.20;78.20;;;;;;5018335;28;20467;-49
2023/05/03 02:50:40;;;;;;;3.50;1.85;;;7.20;78.60;;;;;;5036311;28;20061;-46
2023/05/03 02:53:08;;;;;;;5.10;2.00;;;7.20;78.00;;;;;;5036273;28;20082;-46
2023/05/03 02:55:35;;;;;;;7.57;2.13;;;7.20;78.00;;;;;;5023419;28;20087;-46
2023/05/03 02:58:03;;;;;;;4.97;2.03;;;7.20;78.00;;;;;;5055916;28;20035;-47
2023/05/03 03:00:32;;;;;;;5.40;2.20;;;7.20;77.80;;;;;;5055904;28;20508;-48
2023/05/03 03:03:01;;;;;;;2.78;1.80;;;7.20;77.90;;;;;;5055744;28;20036;-47
2023/05/03 03:05:30;;;;;;;5.97;2.03;;;7.20;77.50;;;;;;5030060;28;20042;-46
2023/05/03 03:07:57;;;;;;;3.13;2.00;;;7.20;77.40;;;;;;5018257;28;20045;-46
2023/05/03 03:10:24;;;;;;;4.10;2.00;;;7.20;77.40;;;;;;5035635;28;20140;-46
2023/05/03 03:12:51;;;;;;;3.83;2.00;;;7.20;77.60;;;;;;5035693;28;20109;-45
2023/05/03 03:15:18;;;;;;;7.80;1.95;;;7.20;77.30;;;;;;5035737;28;20029;-47
2023/05/03 03:17:47;;;;;;;2.95;1.38;;;7.20;77.30;;;;;;5035939;28;20026;-45
2023/05/03 03:20:14;;;;;;;4.82;1.70;;;7.20;77.60;;;;;;5035743;28;20064;-46
2023/05/03 03:22:42;;;;;;;4.05;1.70;;;7.30;78.20;;;;;;5035643;28;20374;-46
2023/05/03 03:25:12;;;;;;;4.75;1.90;;;7.30;78.30;;;;;;5035480;28;20025;-46
2023/05/03 03:27:39;;;;;;;6.88;2.30;;;7.30;78.50;;;;;;5043216;28;20036;-46
2023/05/03 03:30:08;;;;;;;5.40;1.73;;;7.30;78.70;;;;;;5037774;28;20111;-45
2023/05/03 03:32:35;;;;;;;6.68;2.47;;;7.30;79.10;;;;;;5037645;28;20079;-46
2023/05/03 03:35:04;;;;;;;11.77;5.82;;;7.30;78.90;;;;;;5054566;28;20055;-48
2023/05/03 03:37:30;;;;;;;4.70;1.88;;;7.30;79.10;;;;;;5017948;28;20025;-46
2023/05/03 03:39:57;;;;;;;7.05;1.80;;;7.30;79.20;;;;;;5035156;28;20324;-45
2023/05/03 03:42:27;;;;;;;3.58;1.70;;;7.30;79.20;;;;;;5037129;28;20033;-48
2023/05/03 03:44:55;;;;;;;4.22;2.10;;;7.30;78.90;;;;;;5055165;28;20028;-47
2023/05/03 03:47:23;;;;;;;5.22;2.10;;;7.30;78.80;;;;;;5040792;28;20044;-47
2023/05/03 03:49:50;;;;;;;5.80;1.77;;;7.30;78.70;;;;;;5035016;28;20105;-47
2023/05/03 03:52:17;;;;;;;8.35;1.60;;;7.30;78.60;;;;;;5035170;28;20125;-45
2023/05/03 03:54:49;;;;;;;4.95;2.03;;;7.30;78.80;;;;;;5036701;28;20152;-48
2023/05/03 03:57:15;;;;;;;4.85;2.33;;;7.30;79.00;;;;;;5054991;28;20025;-47
2023/05/03 03:59:42;;;;;;;4.35;1.60;;;7.30;79.10;;;;;;5052204;28;20024;-45
2023/05/03 04:02:09;;;;;;;5.40;1.80;;;7.20;79.10;;;;;;5034874;28;20044;-47
2023/05/03 04:04:37;;;;;;;5.80;1.90;;;7.30;79.40;;;;;;5034767;28;20052;-47
2023/05/03 04:07:03;;;;;;;7.95;2.08;;;7.40;79.30;;;;;;5034105;28;20124;-48
2023/05/03 04:09:30;;;;;;;4.47;2.00;;;7.40;79.60;;;;;;5034379;28;20155;-45
2023/05/03 04:11:55;;;;;;;8.18;2.53;;;7.40;79.20;;;;;;5034814;28;20029;-45
2023/05/03 04:14:23;;;;;;;5.95;1.98;;;7.30;79.30;;;;;;5034292;28;20033;-46
2023/05/03 04:16:50;;;;;;;7.55;2.53;;;7.40;79.20;;;;;;5035034;28;20041;-46
2023/05/03 04:19:17;;;;;;;5.82;1.98;;;7.30;79.60;;;;;;5034392;28;20108;-46
2023/05/03 04:21:44;;;;;;;4.15;1.77;;;7.30;79.10;;;;;;5034505;28;20021;-46
2023/05/03 04:24:15;;;;;;;9.15;2.90;;;7.40;79.00;;;;;;5048604;28;20021;-47
2023/05/03 04:26:42;;;;;;;4.90;2.00;;;7.40;79.10;;;;;;5054524;28;20032;-46
2023/05/03 04:29:10;;;;;;;4.65;2.13;;;7.30;79.30;;;;;;5054093;28;20025;-46
2023/05/03 04:31:40;;;;;;;3.35;2.03;;;7.40;79.40;;;;;;5051779;28;20025;-46
2023/05/03 04:34:09;;;;;;;3.95;2.10;;;7.40;79.30;;;;;;5034392;28;20075;-45
2023/05/03 04:36:36;;;;;;;5.28;2.03;;;7.40;78.60;;;;;;5033862;28;20026;-51
2023/05/03 04:39:05;;;;;;;3.47;1.70;;;7.40;78.60;;;;;;5016200;28;20064;-47
2023/05/03 04:41:32;;;;;;;7.40;2.20;;;7.50;78.40;;;;;;5033924;28;20021;-47
2023/05/03 04:43:59;;;;;;;7.50;2.00;;;7.40;77.80;;;;;;5016457;28;20033;-46
2023/05/03 04:46:26;;;;;;;6.82;3.88;;;7.40;76.10;;;;;;5049830;28;20078;-47
2023/05/03 04:48:54;;;;;;;3.83;1.80;;;7.40;76.20;;;;;;5053859;28;20045;-46
2023/05/03 04:51:20;;;;;;;3.55;2.13;;;7.40;77.00;;;;;;5052961;28;20033;-45
2023/05/03 04:53:48;;;;;;;5.40;2.63;;;7.40;77.30;;;;;;5053708;28;20431;-47
2023/05/03 04:56:15;;;;;;;4.70;2.88;;;7.40;76.80;;;;;;5053786;28;20422;-46
2023/05/03 04:58:43;;;;;;;8.15;2.20;;;7.40;77.20;;;;;;5035870;28;20032;-47
2023/05/03 05:01:10;;;;;;;5.38;1.67;;;7.30;76.40;;;;;;5045419;28;20347;-47
2023/05/03 05:03:39;;;;;;;3.47;1.42;;;7.40;76.30;;;;;;5016313;28;20416;-47
2023/05/03 05:06:08;;;;;;;3.08;1.48;;;7.40;75.90;;;;;;5033499;28;20037;-47
2023/05/03 05:08:34;;;;;;;3.78;1.83;;;7.50;75.70;;;;;;5033532;28;20053;-45
2023/05/03 05:11:05;;;;;;;4.55;2.50;;;7.50;76.00;;;;;;5015580;28;20068;-46
2023/05/03 05:13:31;;;;;;;6.68;2.60;;;7.60;75.90;;;;;;5033096;28;20033;-46
2023/05/03 05:15:58;;;;;;;3.25;1.30;;;7.70;76.40;;;;;;5032847;28;20049;-47
2023/05/03 05:18:27;;;;;;;5.65;1.98;;;7.70;75.50;;;;;;5032788;28;20033;-46
2023/05/03 05:20:56;;;;;;;6.68;1.90;;;7.80;76.00;;;;;;5033183;28;20039;-47
2023/05/03 05:23:23;;;;;;;8.00;2.10;;;7.90;75.30;;;;;;5033291;28;20041;-45
2023/05/03 05:25:52;;;;;;;4.13;1.95;;;7.90;73.70;;;;;;5033411;28;20348;-49
2023/05/03 05:28:19;;;;;;;8.73;2.50;;;7.90;74.60;;;;;;5033490;28;20021;-46
2023/05/03 05:30:46;;;;;;;2.85;1.30;;;8.00;75.30;;;;;;5033037;28;20820;-47
2023/05/03 05:33:13;;;;;;;6.78;2.22;;;8.20;75.80;;;;;;5032989;28;20541;-46
2023/05/03 05:35:43;;;;;;;3.25;1.88;;;8.20;75.60;;;;;;5033459;28;20032;-46
2023/05/03 05:38:11;;;;;;;5.70;1.60;;;8.30;74.40;;;;;;5033268;28;20022;-48
2023/05/03 05:40:38;;;;;;;4.20;1.98;;;8.40;74.00;;;;;;5033079;28;20435;-47
2023/05/03 05:43:04;;;;;;;3.83;1.73;;;8.40;73.90;;;;;;5032762;28;20104;-48
2023/05/03 05:45:33;;;;;;;5.57;2.17;;;8.50;73.10;;;;;;5032832;28;20025;-46
2023/05/03 05:47:59;;;;;;;3.37;1.50;;;8.40;71.70;;;;;;5033146;28;20447;-46
2023/05/03 05:50:25;;;;;;;4.50;2.20;;;8.50;72.70;;;;;;5032880;28;20028;-46
2023/05/03 05:52:53;;;;;;;4.15;1.45;;;8.60;72.80;;;;;;5032962;28;20063;-51
2023/05/03 05:55:24;;;;;;;4.32;1.40;;;8.70;73.10;;;;;;5015375;28;20033;-51
2023/05/03 05:57:50;;;;;;;2.88;1.42;;;8.70;71.60;;;;;;5033067;28;20037;-49
2023/05/03 06:00:17;;;;;;;2.83;1.80;;;8.80;71.70;;;;;;5032899;28;20045;-47
2023/05/03 06:02:50;;;;;;;3.15;1.48;;;8.90;71.20;;;;;;5014613;28;20049;-48
2023/05/03 06:05:15;;;;;;;4.15;1.70;;;8.80;69.90;;;;;;5032512;28;20021;-48
2023/05/03 06:07:41;;;;;;;5.47;1.48;;;8.80;69.20;;;;;;5032617;28;20069;-46
2023/05/03 06:10:09;;;;;;;6.00;1.80;;;8.80;69.90;;;;;;5032709;28;20026;-48
2023/05/03 06:12:36;;;;;;;3.63;1.70;;;8.90;70.40;;;;;;5015419;28;20041;-48
2023/05/03 06:15:03;;;;;;;5.07;1.90;;;8.90;70.90;;;;;;5032559;28;20037;-46
2023/05/03 06:17:32;;;;;;;5.03;1.92;;;9.00;70.20;;;;;;5031945;28;20017;-48
2023/05/03 06:19:59;;;;;;;5.77;1.97;;;9.00;69.60;;;;;;5033132;28;20026;-49
2023/05/03 06:22:26;;;;;;;3.90;1.35;;;9.10;69.60;;;;;;5017153;28;20033;-47
2023/05/03 06:24:54;;;;;;;6.00;1.52;;;9.10;68.70;;;;;;5019290;28;20124;-46
2023/05/03 06:27:21;;;;;;;4.45;1.60;;;9.20;69.80;;;;;;5036541;28;20773;-49
2023/05/03 06:29:48;;;;;;;4.43;1.30;;;9.10;67.90;;;;;;5036583;28;20420;-48
2023/05/03 06:32:15;;;;;;;4.30;1.88;;;9.10;68.10;;;;;;5036378;28;20022;-47
2023/05/03 06:34:42;;;;;;;3.22;1.20;;;9.10;67.40;;;;;;5036433;28;20028;-47
2023/05/03 06:37:09;;;;;;;6.15;1.75;;;9.20;68.50;;;;;;5036393;28;20121;-46
2023/05/03 06:39:35;;;;;;;6.22;1.60;;;9.30;69.10;;;;;;5036333;28;20029;-46
2023/05/03 06:42:05;;;;;;;5.10;1.42;;;9.30;70.00;;;;;;5035885;28;20202;-46
2023/05/03 06:44:34;;;;;;;4.82;1.60;;;9.30;70.70;;;;;;5035925;28;20031;-47
2023/05/03 06:47:01;;;;;;;6.63;1.75;;;9.40;70.90;;;;;;5036243;28;20136;-46
2023/05/03 06:49:26;;;;;;;3.95;1.63;;;9.40;70.90;;;;;;5036171;28;20537;-45
2023/05/03 06:51:53;;;;;;;3.85;1.48;;;9.20;69.10;;;;;;5035766;28;20454;-46
2023/05/03 06:54:21;;;;;;;3.42;1.70;;;9.00;69.00;;;;;;5036089;28;20041;-45
2023/05/03 06:56:48;;;;;;;4.65;1.55;;;9.10;70.30;;;;;;5036476;28;20025;-47
2023/05/03 06:59:15;;;;;;;5.97;2.40;;;9.10;71.40;;;;;;5036061;28;20064;-47
2023/05/03 07:01:42;;;;;;;9.57;2.00;;;9.20;71.50;;;;;;5039608;28;20052;-46
2023/05/03 07:04:11;;;;;;;5.47;1.77;;;9.20;70.70;;;;;;5055832;28;20021;-47
2023/05/03 07:06:37;;;;;;;5.10;1.55;;;9.20;69.60;;;;;;5055590;28;20029;-46
2023/05/03 07:09:07;;;;;;;5.03;2.05;;;9.30;69.40;;;;;;5056269;28;20059;-46
2023/05/03 07:11:36;;;;;;;15.75;5.00;;;9.30;69.90;;;;;;5041103;28;20116;-47
2023/05/03 07:14:01;;;;;;;31.42;14.85;;;9.30;70.00;;;;;;5035750;28;20057;-46
2023/05/03 07:16:29;;;;;;;10.48;4.57;;;9.30;71.00;;;;;;5035927;28;20068;-46
2023/05/03 07:18:58;;;;;;;9.98;3.20;;;9.40;70.70;;;;;;5035717;28;20025;-46
2023/05/03 07:21:25;;;;;;;5.10;3.10;;;9.30;71.30;;;;;;5050241;28;20024;-46
2023/05/03 07:23:52;;;;;;;4.28;2.05;;;9.40;71.80;;;;;;5049085;28;20038;-48
2023/05/03 07:26:20;;;;;;;4.93;1.50;;;9.40;71.50;;;;;;5035570;28;20029;-46
2023/05/03 07:28:47;;;;;;;3.92;2.08;;;9.40;70.80;;;;;;5017620;28;20033;-46
2023/05/03 07:31:14;;;;;;;3.97;1.65;;;9.50;70.70;;;;;;5035197;28;20446;-48
2023/05/03 07:33:41;;;;;;;5.05;1.50;;;9.50;69.20;;;;;;5035029;28;20021;-48
2023/05/03 07:36:07;;;;;;;5.60;2.10;;;9.60;67.90;;;;;;5038716;28;20014;-48
2023/05/03 07:38:34;;;;;;;5.90;2.35;;;9.60;69.20;;;;;;5055211;28;20036;-47
2023/05/03 07:41:02;;;;;;;4.32;1.67;;;9.70;69.60;;;;;;5037644;28;20020;-46
2023/05/03 07:43:32;;;;;;;4.90;1.50;;;9.60;67.00;;;;;;5055334;28;20067;-46
2023/05/03 07:45:59;;;;;;;6.85;1.95;;;9.50;66.10;;;;;;5043859;28;20034;-50
2023/05/03 07:48:28;;;;;;;4.30;1.50;;;9.60;66.40;;;;;;5034931;28;20045;-45
2023/05/03 07:50:55;;;;;;;3.60;1.40;;;9.60;65.20;;;;;;5047171;28;20029;-47
2023/05/03 07:53:24;;;;;;;8.63;1.85;;;9.60;66.10;;;;;;5054485;28;20344;-45
2023/05/03 07:55:54;;;;;;;9.63;1.10;;;9.70;66.30;;;;;;5054697;28;20032;-46
2023/05/03 07:58:21;;;;;;;4.22;1.10;;;9.80;65.60;;;;;;5054778;28;20021;-45
2023/05/03 08:00:48;;;;;;;4.80;1.33;;;9.90;64.00;;;;;;5018151;28;20120;-46
2023/05/03 08:03:17;;;;;;;4.88;1.63;;;9.80;63.50;;;;;;5034701;28;20041;-46
2023/05/03 08:05:43;;;;;;;4.82;1.35;;;9.90;63.90;;;;;;5039654;28;20037;-45
2023/05/03 08:08:11;;;;;;;4.10;1.33;;;9.80;62.20;;;;;;5053985;28;20045;-46
2023/05/03 08:10:39;;;;;;;5.32;1.38;;;9.80;62.90;;;;;;5054341;28;20078;-46
2023/05/03 08:13:06;;;;;;;2.92;1.00;;;9.80;63.00;;;;;;5048049;28;20056;-45
2023/05/03 08:15:33;;;;;;;5.05;1.17;;;9.90;61.90;;;;;;5033707;28;20025;-46
2023/05/03 08:18:00;;;;;;;5.00;1.55;;;9.90;61.90;;;;;;5017029;28;20431;-46
2023/05/03 08:20:28;;;;;;;11.20;2.03;;;9.90;61.70;;;;;;5034649;28;20091;-46
2023/05/03 08:22:58;;;;;;;3.55;1.65;;;9.90;61.60;;;;;;5033371;28;20040;-46
2023/05/03 08:25:25;;;;;;;;;;;10.20;61.80;;;;;;5017931;28;20053;-46
2023/05/03 08:27:52;;;;;;;4.90;1.83;;;10.20;62.90;;;;;;5034601;28;19959;-46
2023/05/03 08:30:20;;;;;;;5.05;1.15;;;10.00;62.20;;;;;;5029506;28;20048;-46
2023/05/03 08:32:47;;;;;;;6.85;2.03;;;9.90;62.70;;;;;;5054022;28;20079;-46
2023/05/03 08:35:14;;;;;;;4.43;1.20;;;10.00;62.90;;;;;;5053079;28;20025;-46
2023/05/03 08:37:42;;;;;;;5.22;0.88;;;10.10;62.70;;;;;;5027706;28;20431;-46
2023/05/03 08:40:12;;;;;;;6.18;1.75;;;10.20;62.20;;;;;;5016533;28;20120;-47
2023/05/03 08:42:41;;;;;;;2.33;1.48;;;10.10;61.20;;;;;;5034161;28;20034;-49
2023/05/03 08:45:15;;;;;;;3.53;1.25;;;10.20;61.10;;;;;;5033287;28;20025;-46
2023/05/03 08:47:46;;;;;;;3.30;1.10;;;10.30;62.60;;;;;;5016328;28;20044;-47
2023/05/03 08:50:14;;;;;;;3.35;1.08;;;10.40;61.20;;;;;;5016544;28;20037;-45
2023/05/03 08:52:42;;;;;;;7.18;1.60;;;10.40;60.50;;;;;;5017712;28;20029;-46
2023/05/03 08:55:10;;;;;;;4.68;1.10;;;10.30;59.60;;;;;;5032969;28;20083;-46
2023/05/03 08:57:37;;;;;;;6.47;1.42;;;10.40;60.20;;;;;;5033682;28;20026;-48
2023/05/03 09:00:09;;;;;;;3.45;0.85;;;10.40;61.00;;;;;;5033937;28;20374;-46
2023/05/03 09:02:39;;;;;;;4.20;1.20;;;10.50;60.60;;;;;;5016917;28;20030;-47
2023/05/03 09:05:31;;;;;;;6.47;1.52;;;10.60;59.70;;;;;;5033812;28;20336;-46
2023/05/03 09:08:12;;;;;;;4.97;1.75;;;10.60;60.80;;;;;;5033496;28;20041;-46
2023/05/03 09:10:40;;;;;;;5.80;1.40;;;10.50;62.10;;;;;;5033664;28;20022;-46
2023/05/03 09:13:08;;;;;;;4.70;1.70;;;10.50;60.50;;;;;;5033627;28;20044;-46
2023/05/03 09:15:35;;;;;;;2.83;1.27;;;10.70;60.80;;;;;;5033339;28;20028;-46
2023/05/03 09:18:10;;;;;;;5.80;1.17;;;10.80;59.60;;;;;;5016020;28;20026;-47
2023/05/03 09:20:39;;;;;;;4.00;1.10;;;10.90;60.70;;;;;;5033582;28;20108;-46
2023/05/03 09:23:07;;;;;;;4.10;1.08;;;11.00;61.40;;;;;;5049117;28;20604;-46
2023/05/03 09:25:51;;;;;;;5.13;1.55;;;11.00;58.50;;;;;;5053236;28;20112;-46
2023/05/03 09:28:18;;;;;;;4.07;1.05;;;11.00;57.90;;;;;;5053113;28;20025;-47
2023/05/03 09:30:48;;;;;;;6.15;1.15;;;11.20;58.50;;;;;;5048776;28;20025;-46
2023/05/03 09:33:21;;;;;;;5.07;1.63;;;11.30;58.40;;;;;;5016054;28;20083;-50
2023/05/03 09:36:03;;;;;;;4.45;1.10;;;11.30;58.30;;;;;;5033593;28;20029;-46
2023/05/03 09:38:35;;;;;;;4.57;1.48;;;11.50;59.40;;;;;;5015446;28;20026;-46
2023/05/03 09:41:05;;;;;;;6.15;1.30;;;11.60;57.40;;;;;;5032969;28;20035;-47
2023/05/03 09:43:31;;;;;;;;;;;11.90;57.20;;;;;;5033557;28;20046;-48
2023/05/03 09:46:12;;;;;;;3.83;0.90;;;11.70;55.50;;;;;;5033024;28;20307;-46
2023/05/03 09:48:40;;;;;;;3.63;1.17;;;11.90;55.20;;;;;;5015407;28;20076;-47
2023/05/03 09:51:07;;;;;;;4.40;1.52;;;12.00;56.70;;;;;;5032910;28;20052;-46
2023/05/03 09:53:37;;;;;;;2.28;0.90;;;12.20;55.00;;;;;;5032650;28;20443;-46
2023/05/03 09:56:12;;;;;;;5.38;1.02;;;12.40;55.50;;;;;;5032886;28;20022;-46
2023/05/03 09:58:40;;;;;;;21.63;3.53;;;12.40;55.20;;;;;;5047448;28;20033;-46
2023/05/03 10:01:09;;;;;;;10.32;1.55;;;12.40;55.90;;;;;;5052852;28;20481;-46
2023/05/03 10:03:43;;;;;;;2.85;0.75;;;12.30;55.50;;;;;;5035312;28;20029;-46
2023/05/03 10:06:30;;;;;;;3.58;1.20;;;12.10;55.00;;;;;;5035274;28;20039;-47
2023/05/03 10:09:19;;;;;;;8.43;2.22;;;12.10;55.10;;;;;;5032593;28;20111;-46
2023/05/03 10:11:53;;;;;;;2.93;0.90;;;11.90;53.80;;;;;;5032833;28;20030;-50
2023/05/03 10:14:20;;;;;;;2.65;0.80;;;12.00;54.20;;;;;;5051071;28;20044;-47
2023/05/03 10:16:52;;;;;;;4.90;1.33;;;11.90;53.20;;;;;;5046912;28;20037;-47
2023/05/03 10:19:26;;;;;;;2.70;0.80;;;11.70;53.60;;;;;;5032391;28;20014;-48
2023/05/03 10:22:10;;;;;;;3.53;0.82;;;11.70;53.90;;;;;;5032552;28;20035;-47
2023/05/03 10:25:02;;;;;;;5.00;1.20;;;11.70;54.60;;;;;;5032502;28;20018;-47
2023/05/03 10:27:47;;;;;;;6.70;1.65;;;11.60;54.90;;;;;;5032388;28;20094;-47
2023/05/03 10:30:31;;;;;;;6.13;1.35;;;11.90;55.00;;;;;;5032218;28;20021;-48
2023/05/03 10:33:18;;;;;;;4.55;1.45;;;11.90;54.90;;;;;;5049377;28;20128;-46
2023/05/03 10:35:51;;;;;;;3.13;1.17;;;11.80;54.10;;;;;;5052355;28;20017;-47
2023/05/03 10:38:20;;;;;;;4.10;1.05;;;12.00;55.70;;;;;;5052136;28;20449;-46
2023/05/03 10:40:47;;;;;;;8.00;1.35;;;12.10;54.00;;;;;;5048569;28;20057;-47
2023/05/03 10:43:31;;;;;;;4.90;0.93;;;12.20;53.80;;;;;;5032155;28;20026;-46
2023/05/03 10:46:05;;;;;;;9.73;3.20;;;12.20;54.00;;;;;;5032384;28;20041;-47
2023/05/03 10:48:35;;;;;;;11.50;2.08;;;12.20;53.70;;;;;;5042831;28;20037;-48
2023/05/03 10:51:29;;;;;;;4.53;0.88;;;12.20;53.30;;;;;;5034750;28;20029;-47
2023/05/03 10:53:56;;;;;;;9.38;1.77;;;12.30;50.90;;;;;;5037441;28;20067;-46
2023/05/03 10:56:25;;;;;;;3.58;0.90;;;12.20;51.70;;;;;;5031937;28;20089;-47
2023/05/03 10:58:55;;;;;;;3.53;0.90;;;12.20;53.20;;;;;;5031986;28;20021;-49
2023/05/03 11:01:23;;;;;;;5.65;1.88;;;12.40;51.60;;;;;;5032266;28;20132;-46
2023/05/03 11:04:07;;;;;;;6.32;2.97;;;12.40;54.10;;;;;;5019132;28;20033;-48
2023/05/03 11:06:40;;;;;;;5.10;1.38;;;12.60;52.70;;;;;;5052071;28;20338;-47
2023/05/03 11:09:11;;;;;;;3.00;0.95;;;12.40;53.00;;;;;;5054919;28;20037;-47
2023/05/03 11:11:39;;;;;;;2.78;1.13;;;12.30;53.00;;;;;;5055381;28;20057;-47
2023/05/03 11:14:07;;;;;;;1.92;0.75;;;12.40;52.40;;;;;;5039428;28;20451;-46
2023/05/03 11:16:46;;;;;;;4.10;1.08;;;12.20;53.90;;;;;;5035335;28;20026;-47
2023/05/03 11:19:14;;;;;;;4.53;1.20;;;12.50;54.40;;;;;;5035224;28;20026;-46
2023/05/03 11:21:42;;;;;;;2.17;0.80;;;12.60;52.70;;;;;;5035031;28;20025;-52
2023/05/03 11:24:11;;;;;;;3.30;0.80;;;12.70;52.20;;;;;;5035136;28;20026;-46
2023/05/03 11:26:38;;;;;;;3.30;1.00;;;12.70;51.20;;;;;;5035119;28;20034;-48
2023/05/03 11:29:09;;;;;;;5.82;1.42;;;12.70;53.10;;;;;;5034977;28;20470;-46
2023/05/03 11:31:36;;;;;;;5.70;1.33;;;12.80;52.40;;;;;;5017118;28;20135;-47
2023/05/03 11:34:04;;;;;;;5.15;1.35;;;12.70;50.10;;;;;;5034988;28;20031;-53
2023/05/03 11:36:31;;;;;;;5.70;1.52;;;12.60;50.20;;;;;;5034851;28;20021;-48
2023/05/03 11:38:58;;;;;;;5.68;1.60;;;12.40;52.80;;;;;;5017770;28;20439;-46
2023/05/03 11:41:26;;;;;;;2.55;0.60;;;12.40;52.80;;;;;;5035033;28;20033;-49
2023/05/03 11:43:55;;;;;;;3.33;0.80;;;12.40;52.20;;;;;;5035235;28;20053;-46
2023/05/03 11:46:25;;;;;;;4.13;0.98;;;12.50;53.40;;;;;;5035378;28;20033;-47
2023/05/03 11:48:54;;;;;;;13.88;2.10;;;12.60;53.00;;;;;;5017491;28;20040;-48
2023/05/03 11:51:27;;;;;;;8.00;1.98;;;12.70;53.50;;;;;;5033799;28;20099;-46
2023/05/03 11:53:54;;;;;;;2.92;1.05;;;12.50;52.90;;;;;;5033764;28;20442;-46
2023/05/03 11:56:21;;;;;;;3.20;1.00;;;12.40;51.70;;;;;;5035005;28;20444;-46
2023/05/03 11:59:05;;;;;;;2.47;1.00;;;12.30;52.80;;;;;;5034623;28;20121;-47
2023/05/03 12:01:32;;;;;;;1.85;0.85;;;12.20;51.70;;;;;;5017404;28;20547;-46
2023/05/03 12:04:02;;;;;;;2.83;1.05;;;12.20;52.60;;;;;;5001130;28;20049;-47
2023/05/03 12:06:33;;;;;;;5.63;1.58;;;12.60;51.80;;;;;;5050838;28;20033;-47
2023/05/03 12:09:00;;;;;;;3.58;1.10;;;13.00;54.20;;;;;;5053496;28;20720;-48
2023/05/03 12:11:29;;;;;;;3.92;1.10;;;13.20;49.50;;;;;;5054335;28;20096;-47
2023/05/03 12:13:59;;;;;;;4.53;1.17;;;13.40;52.40;;;;;;5054560;28;20476;-47
2023/05/03 12:16:26;;;;;;;;;;;13.60;51.20;;;;;;5035425;28;20582;-47
2023/05/03 12:19:10;;;;;;;7.35;4.43;;;13.40;51.40;;;;;;5034032;28;19909;-46
2023/05/03 12:21:45;;;;;;;6.65;1.67;;;12.90;48.90;;;;;;5017116;28;20057;-50
2023/05/03 12:24:16;;;;;;;4.88;2.38;;;12.40;50.10;;;;;;5034345;28;20410;-47
2023/05/03 12:26:46;;;;;;;8.05;2.95;;;12.10;50.30;;;;;;5034543;28;20042;-47
2023/05/03 12:29:18;;;;;;;7.03;1.35;;;11.80;53.30;;;;;;5034412;28;20038;-46
2023/05/03 12:31:45;;;;;;;4.22;1.25;;;11.70;55.20;;;;;;5034338;28;20476;-48
2023/05/03 12:34:14;;;;;;;3.88;2.08;;;11.90;54.40;;;;;;5034340;28;20510;-48
2023/05/03 12:36:41;;;;;;;1.70;0.90;;;12.30;54.90;;;;;;5034057;28;20044;-52
2023/05/03 12:39:09;;;;;;;3.13;0.90;;;12.70;54.50;;;;;;5034168;28;20112;-47
2023/05/03 12:41:38;;;;;;;4.95;1.50;;;12.90;53.10;;;;;;5016530;28;20021;-49
2023/05/03 12:44:05;;;;;;;3.00;1.30;;;13.10;51.90;;;;;;5016617;28;20075;-48
2023/05/03 12:46:32;;;;;;;5.30;1.00;;;13.10;51.60;;;;;;5033823;28;20033;-48
2023/05/03 12:48:58;;;;;;;3.20;1.10;;;13.10;51.40;;;;;;5038277;28;20025;-51
2023/05/03 12:51:26;;;;;;;8.90;1.73;;;13.10;49.80;;;;;;5053592;28;20067;-47
2023/05/03 12:53:53;;;;;;;5.57;2.00;;;13.30;51.50;;;;;;5042257;28;20057;-47
2023/05/03 12:56:20;;;;;;;2.20;0.95;;;13.10;50.00;;;;;;5016410;28;20037;-48
2023/05/03 12:58:48;;;;;;;3.97;1.27;;;13.20;54.30;;;;;;5042279;28;20025;-46
2023/05/03 13:01:16;;;;;;;19.10;3.65;;;13.00;51.80;;;;;;5053661;28;20029;-48
2023/05/03 13:03:43;;;;;;;4.10;1.15;;;12.70;51.40;;;;;;5053528;28;20032;-53